Für Piloten

Informationen für Piloten zum Flugplatz Borken-Hoxfeld
Hier findest Du alle relevanten Informationen, die Du als Pilot benötigst, um Borken-Hoxfeld anzufliegen.

Flugplatz: Borken-Hoxfeld ICAO-Code: EDLY
Borken-Hoxfeld Info: 122,925 Mhz
GAFOR Gebiet: 32
Platzrunde: Motorflug; -> Südplatzrunde; Segelflug; -> Nordplatzrunde;
Landegebühr: z.Zt. 5,00 Euro
Platzhöhe: 48m üMSL
Pisten: 12/30 – 740 m x 30 m, GRAS
Betriebszeiten: PPR (in den Sommermonaten Mittagspause beachten)

 

Wetterforecast:

Available data for EDDL from the past 2 hours

metar

  • EDDL 181550Z 24008KT 9999 FEW020 SCT100 BKN130 19/15 Q1012 NOSIG
  • EDDL 181520Z 26006KT 220V300 9999 FEW020TCU SCT070 BKN120 19/15 Q1012 NOSIG
  • EDDL 181450Z 26013KT 220V300 9999 VCSH SCT020CB BKN120 19/15 Q1012 NOSIG
  • EDDL 181420Z 22009KT 9999 SCT020CB BKN120 20/17 Q1011 NOSIG

taf

  • TAF EDDL 181100Z 1812/1918 21008KT 9999 SCT011 BKN040 TEMPO 1812/1817 3000 +SHRA BKN015TCU BECMG 1904/1908 23015G25KT

Alle obigen Informationen ersetzen nicht die vorgeschriebene, persönliche Flugvorbereitung.